sensor_id;sensor_type;location;lat;lon;timestamp;P1;durP1;ratioP1;P2;durP2;ratioP2
82797;SDS011;72540;62.834;27.606;2024-02-21T00:00:21;6.35;;;1.60;;
82797;SDS011;72540;62.834;27.606;2024-02-21T00:02:47;4.97;;;1.50;;
82797;SDS011;72540;62.834;27.606;2024-02-21T00:05:13;7.60;;;1.92;;
82797;SDS011;72540;62.834;27.606;2024-02-21T00:07:39;5.63;;;1.85;;
82797;SDS011;72540;62.834;27.606;2024-02-21T00:10:04;6.95;;;1.80;;
82797;SDS011;72540;62.834;27.606;2024-02-21T00:12:30;7.07;;;1.65;;
82797;SDS011;72540;62.834;27.606;2024-02-21T00:14:56;6.25;;;2.10;;
82797;SDS011;72540;62.834;27.606;2024-02-21T00:17:22;8.23;;;2.30;;
82797;SDS011;72540;62.834;27.606;2024-02-21T00:19:47;7.82;;;2.35;;
82797;SDS011;72540;62.834;27.606;2024-02-21T00:22:13;6.05;;;2.00;;
82797;SDS011;72540;62.834;27.606;2024-02-21T00:24:38;6.70;;;1.98;;
82797;SDS011;72540;62.834;27.606;2024-02-21T00:27:04;5.22;;;1.63;;
82797;SDS011;72540;62.834;27.606;2024-02-21T00:29:30;6.38;;;2.03;;
82797;SDS011;72540;62.834;27.606;2024-02-21T00:31:56;5.93;;;2.00;;
82797;SDS011;72540;62.834;27.606;2024-02-21T00:34:21;7.72;;;2.28;;
82797;SDS011;72540;62.834;27.606;2024-02-21T00:36:47;7.25;;;1.67;;
82797;SDS011;72540;62.834;27.606;2024-02-21T00:39:13;7.28;;;2.00;;
82797;SDS011;72540;62.834;27.606;2024-02-21T00:41:38;5.95;;;1.95;;
82797;SDS011;72540;62.834;27.606;2024-02-21T00:44:04;6.53;;;1.95;;
82797;SDS011;72540;62.834;27.606;2024-02-21T00:46:31;5.10;;;1.67;;
82797;SDS011;72540;62.834;27.606;2024-02-21T00:48:56;7.63;;;2.10;;
82797;SDS011;72540;62.834;27.606;2024-02-21T00:51:22;5.18;;;1.50;;
82797;SDS011;72540;62.834;27.606;2024-02-21T00:53:48;6.95;;;2.40;;
82797;SDS011;72540;62.834;27.606;2024-02-21T00:56:13;5.30;;;2.25;;
82797;SDS011;72540;62.834;27.606;2024-02-21T00:58:39;7.22;;;1.90;;
82797;SDS011;72540;62.834;27.606;2024-02-21T01:01:05;6.15;;;1.88;;
82797;SDS011;72540;62.834;27.606;2024-02-21T01:03:30;6.75;;;1.88;;
82797;SDS011;72540;62.834;27.606;2024-02-21T01:05:56;5.70;;;2.00;;
82797;SDS011;72540;62.834;27.606;2024-02-21T01:08:22;8.38;;;1.83;;
82797;SDS011;72540;62.834;27.606;2024-02-21T01:10:48;5.05;;;1.65;;
82797;SDS011;72540;62.834;27.606;2024-02-21T01:13:13;6.15;;;2.00;;
82797;SDS011;72540;62.834;27.606;2024-02-21T01:15:39;7.88;;;2.33;;
82797;SDS011;72540;62.834;27.606;2024-02-21T01:18:05;5.07;;;1.38;;
82797;SDS011;72540;62.834;27.606;2024-02-21T01:20:30;7.85;;;1.92;;
82797;SDS011;72540;62.834;27.606;2024-02-21T01:22:56;6.03;;;2.40;;
82797;SDS011;72540;62.834;27.606;2024-02-21T01:25:22;5.93;;;1.80;;
82797;SDS011;72540;62.834;27.606;2024-02-21T01:27:48;4.93;;;1.60;;
82797;SDS011;72540;62.834;27.606;2024-02-21T01:30:14;6.38;;;1.70;;
82797;SDS011;72540;62.834;27.606;2024-02-21T01:32:39;8.18;;;2.15;;
82797;SDS011;72540;62.834;27.606;2024-02-21T01:35:06;6.57;;;1.60;;
82797;SDS011;72540;62.834;27.606;2024-02-21T01:37:32;4.60;;;1.70;;
82797;SDS011;72540;62.834;27.606;2024-02-21T01:39:58;5.22;;;1.60;;
82797;SDS011;72540;62.834;27.606;2024-02-21T01:42:23;5.78;;;1.70;;
82797;SDS011;72540;62.834;27.606;2024-02-21T01:44:49;5.57;;;1.90;;
82797;SDS011;72540;62.834;27.606;2024-02-21T01:47:15;7.43;;;1.85;;
82797;SDS011;72540;62.834;27.606;2024-02-21T01:49:41;5.90;;;1.67;;
82797;SDS011;72540;62.834;27.606;2024-02-21T01:52:07;4.72;;;1.77;;
82797;SDS011;72540;62.834;27.606;2024-02-21T01:54:33;5.85;;;1.83;;
82797;SDS011;72540;62.834;27.606;2024-02-21T01:56:59;6.03;;;1.73;;
82797;SDS011;72540;62.834;27.606;2024-02-21T01:59:24;5.95;;;2.17;;
82797;SDS011;72540;62.834;27.606;2024-02-21T02:01:51;8.50;;;2.30;;
82797;SDS011;72540;62.834;27.606;2024-02-21T02:04:18;7.47;;;2.15;;
82797;SDS011;72540;62.834;27.606;2024-02-21T02:06:45;6.50;;;1.92;;
82797;SDS011;72540;62.834;27.606;2024-02-21T02:09:11;4.70;;;1.42;;
82797;SDS011;72540;62.834;27.606;2024-02-21T02:11:37;7.40;;;2.05;;
82797;SDS011;72540;62.834;27.606;2024-02-21T02:14:02;6.25;;;1.80;;
82797;SDS011;72540;62.834;27.606;2024-02-21T02:16:28;4.97;;;1.65;;
82797;SDS011;72540;62.834;27.606;2024-02-21T02:18:54;5.63;;;1.83;;
82797;SDS011;72540;62.834;27.606;2024-02-21T02:21:24;6.13;;;1.90;;
82797;SDS011;72540;62.834;27.606;2024-02-21T02:24:00;6.80;;;2.17;;
82797;SDS011;72540;62.834;27.606;2024-02-21T02:26:26;7.18;;;2.00;;
82797;SDS011;72540;62.834;27.606;2024-02-21T02:28:52;7.55;;;2.38;;
82797;SDS011;72540;62.834;27.606;2024-02-21T02:31:18;6.00;;;2.03;;
82797;SDS011;72540;62.834;27.606;2024-02-21T02:33:44;5.97;;;1.90;;
82797;SDS011;72540;62.834;27.606;2024-02-21T02:36:09;7.38;;;1.90;;
82797;SDS011;72540;62.834;27.606;2024-02-21T02:38:35;6.50;;;2.58;;
82797;SDS011;72540;62.834;27.606;2024-02-21T02:41:01;8.57;;;2.17;;
82797;SDS011;72540;62.834;27.606;2024-02-21T02:43:27;6.65;;;1.92;;
82797;SDS011;72540;62.834;27.606;2024-02-21T02:45:53;6.88;;;1.98;;
82797;SDS011;72540;62.834;27.606;2024-02-21T02:48:19;5.60;;;1.77;;
82797;SDS011;72540;62.834;27.606;2024-02-21T02:50:45;4.50;;;1.27;;
82797;SDS011;72540;62.834;27.606;2024-02-21T02:53:11;6.82;;;1.75;;
82797;SDS011;72540;62.834;27.606;2024-02-21T02:55:37;7.45;;;1.85;;
82797;SDS011;72540;62.834;27.606;2024-02-21T02:58:02;4.95;;;1.42;;
82797;SDS011;72540;62.834;27.606;2024-02-21T03:00:28;7.18;;;2.05;;
82797;SDS011;72540;62.834;27.606;2024-02-21T03:02:54;9.07;;;1.88;;
82797;SDS011;72540;62.834;27.606;2024-02-21T03:05:20;7.00;;;1.65;;
82797;SDS011;72540;62.834;27.606;2024-02-21T03:07:47;7.30;;;1.88;;
82797;SDS011;72540;62.834;27.606;2024-02-21T03:10:14;4.97;;;1.63;;
82797;SDS011;72540;62.834;27.606;2024-02-21T03:12:41;5.43;;;1.95;;
82797;SDS011;72540;62.834;27.606;2024-02-21T03:15:07;6.53;;;2.17;;
82797;SDS011;72540;62.834;27.606;2024-02-21T03:17:33;7.22;;;2.00;;
82797;SDS011;72540;62.834;27.606;2024-02-21T03:20:02;4.97;;;1.73;;
82797;SDS011;72540;62.834;27.606;2024-02-21T03:22:34;6.65;;;2.00;;
82797;SDS011;72540;62.834;27.606;2024-02-21T03:24:59;6.53;;;1.98;;
82797;SDS011;72540;62.834;27.606;2024-02-21T03:27:26;5.20;;;1.65;;
82797;SDS011;72540;62.834;27.606;2024-02-21T03:29:51;5.18;;;2.05;;
82797;SDS011;72540;62.834;27.606;2024-02-21T03:32:17;5.78;;;1.40;;
82797;SDS011;72540;62.834;27.606;2024-02-21T03:34:43;6.43;;;1.77;;
82797;SDS011;72540;62.834;27.606;2024-02-21T03:37:08;5.57;;;1.88;;
82797;SDS011;72540;62.834;27.606;2024-02-21T03:39:34;5.32;;;1.60;;
82797;SDS011;72540;62.834;27.606;2024-02-21T03:42:00;7.22;;;1.70;;
82797;SDS011;72540;62.834;27.606;2024-02-21T03:44:30;6.00;;;1.70;;
82797;SDS011;72540;62.834;27.606;2024-02-21T03:46:56;6.43;;;1.88;;
82797;SDS011;72540;62.834;27.606;2024-02-21T03:49:22;7.13;;;1.83;;
82797;SDS011;72540;62.834;27.606;2024-02-21T03:51:48;5.20;;;1.70;;
82797;SDS011;72540;62.834;27.606;2024-02-21T03:54:13;4.20;;;1.65;;
82797;SDS011;72540;62.834;27.606;2024-02-21T03:56:39;5.53;;;2.05;;
82797;SDS011;72540;62.834;27.606;2024-02-21T03:59:06;5.18;;;1.80;;
82797;SDS011;72540;62.834;27.606;2024-02-21T04:01:33;4.05;;;1.42;;
82797;SDS011;72540;62.834;27.606;2024-02-21T04:03:59;5.38;;;1.80;;
82797;SDS011;72540;62.834;27.606;2024-02-21T04:06:24;6.53;;;1.70;;
82797;SDS011;72540;62.834;27.606;2024-02-21T04:08:50;4.60;;;1.73;;
82797;SDS011;72540;62.834;27.606;2024-02-21T04:11:16;6.47;;;1.83;;
82797;SDS011;72540;62.834;27.606;2024-02-21T04:13:44;6.38;;;2.08;;
82797;SDS011;72540;62.834;27.606;2024-02-21T04:16:10;7.55;;;2.00;;
82797;SDS011;72540;62.834;27.606;2024-02-21T04:18:36;10.63;;;2.20;;
82797;SDS011;72540;62.834;27.606;2024-02-21T04:21:01;5.43;;;1.88;;
82797;SDS011;72540;62.834;27.606;2024-02-21T04:23:27;7.20;;;2.30;;
82797;SDS011;72540;62.834;27.606;2024-02-21T04:25:53;9.15;;;2.40;;
82797;SDS011;72540;62.834;27.606;2024-02-21T04:28:19;8.40;;;1.95;;
82797;SDS011;72540;62.834;27.606;2024-02-21T04:30:44;7.32;;;2.40;;
82797;SDS011;72540;62.834;27.606;2024-02-21T04:33:10;6.22;;;2.15;;
82797;SDS011;72540;62.834;27.606;2024-02-21T04:35:36;5.38;;;1.98;;
82797;SDS011;72540;62.834;27.606;2024-02-21T04:38:02;8.00;;;2.15;;
82797;SDS011;72540;62.834;27.606;2024-02-21T04:40:29;6.18;;;2.13;;
82797;SDS011;72540;62.834;27.606;2024-02-21T04:42:54;7.90;;;2.05;;
82797;SDS011;72540;62.834;27.606;2024-02-21T04:45:20;5.97;;;2.33;;
82797;SDS011;72540;62.834;27.606;2024-02-21T04:47:46;7.00;;;2.30;;
82797;SDS011;72540;62.834;27.606;2024-02-21T04:50:12;6.28;;;2.50;;
82797;SDS011;72540;62.834;27.606;2024-02-21T04:52:38;5.28;;;1.95;;
82797;SDS011;72540;62.834;27.606;2024-02-21T04:55:03;6.18;;;1.98;;
82797;SDS011;72540;62.834;27.606;2024-02-21T04:57:29;7.85;;;2.53;;
82797;SDS011;72540;62.834;27.606;2024-02-21T04:59:55;6.63;;;2.35;;
82797;SDS011;72540;62.834;27.606;2024-02-21T05:02:21;5.35;;;1.92;;
82797;SDS011;72540;62.834;27.606;2024-02-21T05:04:49;7.75;;;2.25;;
82797;SDS011;72540;62.834;27.606;2024-02-21T05:07:15;7.60;;;2.55;;
82797;SDS011;72540;62.834;27.606;2024-02-21T05:09:44;9.70;;;2.80;;
82797;SDS011;72540;62.834;27.606;2024-02-21T05:12:09;6.40;;;2.13;;
82797;SDS011;72540;62.834;27.606;2024-02-21T05:14:35;7.32;;;2.65;;
82797;SDS011;72540;62.834;27.606;2024-02-21T05:17:01;6.63;;;2.50;;
82797;SDS011;72540;62.834;27.606;2024-02-21T05:19:26;7.85;;;2.35;;
82797;SDS011;72540;62.834;27.606;2024-02-21T05:21:52;7.20;;;2.33;;
82797;SDS011;72540;62.834;27.606;2024-02-21T05:24:18;10.55;;;2.42;;
82797;SDS011;72540;62.834;27.606;2024-02-21T05:26:43;7.30;;;2.45;;
82797;SDS011;72540;62.834;27.606;2024-02-21T05:29:09;6.95;;;2.22;;
82797;SDS011;72540;62.834;27.606;2024-02-21T05:34:15;9.48;;;2.53;;
82797;SDS011;72540;62.834;27.606;2024-02-21T05:36:41;7.97;;;2.00;;
82797;SDS011;72540;62.834;27.606;2024-02-21T05:39:07;7.50;;;2.60;;
82797;SDS011;72540;62.834;27.606;2024-02-21T05:41:33;7.57;;;2.17;;
82797;SDS011;72540;62.834;27.606;2024-02-21T05:43:58;7.05;;;2.03;;
82797;SDS011;72540;62.834;27.606;2024-02-21T05:46:24;5.35;;;2.10;;
82797;SDS011;72540;62.834;27.606;2024-02-21T05:48:50;6.38;;;2.33;;
82797;SDS011;72540;62.834;27.606;2024-02-21T05:51:15;8.43;;;2.42;;
82797;SDS011;72540;62.834;27.606;2024-02-21T05:53:41;6.47;;;2.22;;
82797;SDS011;72540;62.834;27.606;2024-02-21T05:56:10;7.30;;;2.83;;
82797;SDS011;72540;62.834;27.606;2024-02-21T05:58:36;7.32;;;2.72;;
82797;SDS011;72540;62.834;27.606;2024-02-21T06:01:02;9.40;;;2.25;;
82797;SDS011;72540;62.834;27.606;2024-02-21T06:03:29;6.78;;;2.20;;
82797;SDS011;72540;62.834;27.606;2024-02-21T06:05:54;8.25;;;2.03;;
82797;SDS011;72540;62.834;27.606;2024-02-21T06:08:20;7.05;;;2.28;;
82797;SDS011;72540;62.834;27.606;2024-02-21T06:10:46;6.82;;;2.17;;
82797;SDS011;72540;62.834;27.606;2024-02-21T06:13:13;9.32;;;3.00;;
82797;SDS011;72540;62.834;27.606;2024-02-21T06:15:40;6.55;;;2.40;;
82797;SDS011;72540;62.834;27.606;2024-02-21T06:18:05;6.28;;;1.88;;
82797;SDS011;72540;62.834;27.606;2024-02-21T06:20:31;6.20;;;2.00;;
82797;SDS011;72540;62.834;27.606;2024-02-21T06:22:57;8.27;;;2.33;;
82797;SDS011;72540;62.834;27.606;2024-02-21T06:25:22;7.18;;;2.47;;
82797;SDS011;72540;62.834;27.606;2024-02-21T06:27:48;9.90;;;2.53;;
82797;SDS011;72540;62.834;27.606;2024-02-21T06:30:14;9.50;;;2.65;;
82797;SDS011;72540;62.834;27.606;2024-02-21T06:32:40;8.43;;;2.40;;
82797;SDS011;72540;62.834;27.606;2024-02-21T06:35:05;9.32;;;2.50;;
82797;SDS011;72540;62.834;27.606;2024-02-21T06:37:31;6.63;;;2.78;;
82797;SDS011;72540;62.834;27.606;2024-02-21T06:39:57;6.20;;;2.08;;
82797;SDS011;72540;62.834;27.606;2024-02-21T06:42:26;6.63;;;2.40;;
82797;SDS011;72540;62.834;27.606;2024-02-21T06:44:52;6.70;;;2.35;;
82797;SDS011;72540;62.834;27.606;2024-02-21T06:47:18;5.78;;;2.13;;
82797;SDS011;72540;62.834;27.606;2024-02-21T06:49:47;7.75;;;2.65;;
82797;SDS011;72540;62.834;27.606;2024-02-21T06:52:14;7.43;;;2.08;;
82797;SDS011;72540;62.834;27.606;2024-02-21T06:54:42;6.22;;;2.25;;
82797;SDS011;72540;62.834;27.606;2024-02-21T06:57:07;9.25;;;2.80;;
82797;SDS011;72540;62.834;27.606;2024-02-21T06:59:33;5.53;;;2.03;;
82797;SDS011;72540;62.834;27.606;2024-02-21T07:01:59;6.35;;;2.35;;
82797;SDS011;72540;62.834;27.606;2024-02-21T07:04:25;8.38;;;2.75;;
82797;SDS011;72540;62.834;27.606;2024-02-21T07:06:52;5.68;;;1.98;;
82797;SDS011;72540;62.834;27.606;2024-02-21T07:09:18;5.90;;;2.30;;
82797;SDS011;72540;62.834;27.606;2024-02-21T07:11:43;6.70;;;2.60;;
82797;SDS011;72540;62.834;27.606;2024-02-21T07:14:09;7.22;;;2.75;;
82797;SDS011;72540;62.834;27.606;2024-02-21T07:16:35;6.20;;;2.15;;
82797;SDS011;72540;62.834;27.606;2024-02-21T07:19:00;8.63;;;2.42;;
82797;SDS011;72540;62.834;27.606;2024-02-21T07:21:26;7.43;;;2.10;;
82797;SDS011;72540;62.834;27.606;2024-02-21T07:23:52;9.00;;;2.28;;
82797;SDS011;72540;62.834;27.606;2024-02-21T07:26:18;7.65;;;2.67;;
82797;SDS011;72540;62.834;27.606;2024-02-21T07:28:43;5.88;;;2.17;;
82797;SDS011;72540;62.834;27.606;2024-02-21T07:31:09;9.13;;;2.60;;
82797;SDS011;72540;62.834;27.606;2024-02-21T07:33:35;8.20;;;3.22;;
82797;SDS011;72540;62.834;27.606;2024-02-21T07:36:01;8.18;;;2.55;;
82797;SDS011;72540;62.834;27.606;2024-02-21T07:38:26;8.05;;;2.63;;
82797;SDS011;72540;62.834;27.606;2024-02-21T07:40:52;6.72;;;2.40;;
82797;SDS011;72540;62.834;27.606;2024-02-21T07:43:18;9.00;;;2.30;;
82797;SDS011;72540;62.834;27.606;2024-02-21T07:45:44;6.15;;;1.95;;
82797;SDS011;72540;62.834;27.606;2024-02-21T07:48:09;7.75;;;2.38;;
82797;SDS011;72540;62.834;27.606;2024-02-21T07:50:35;6.40;;;2.22;;
82797;SDS011;72540;62.834;27.606;2024-02-21T07:53:00;7.65;;;2.25;;
82797;SDS011;72540;62.834;27.606;2024-02-21T07:55:26;6.97;;;2.10;;
82797;SDS011;72540;62.834;27.606;2024-02-21T07:57:51;5.60;;;2.10;;
82797;SDS011;72540;62.834;27.606;2024-02-21T08:00:17;6.88;;;2.15;;
82797;SDS011;72540;62.834;27.606;2024-02-21T08:02:48;7.82;;;2.80;;
82797;SDS011;72540;62.834;27.606;2024-02-21T08:05:14;5.68;;;1.83;;
82797;SDS011;72540;62.834;27.606;2024-02-21T08:07:39;6.50;;;1.88;;
82797;SDS011;72540;62.834;27.606;2024-02-21T08:10:05;6.10;;;2.25;;
82797;SDS011;72540;62.834;27.606;2024-02-21T08:12:34;5.68;;;1.65;;
82797;SDS011;72540;62.834;27.606;2024-02-21T08:15:00;7.43;;;2.08;;
82797;SDS011;72540;62.834;27.606;2024-02-21T08:17:26;7.15;;;2.08;;
82797;SDS011;72540;62.834;27.606;2024-02-21T08:19:51;6.80;;;2.05;;
82797;SDS011;72540;62.834;27.606;2024-02-21T08:22:17;4.40;;;1.60;;
82797;SDS011;72540;62.834;27.606;2024-02-21T08:24:42;6.60;;;2.28;;
82797;SDS011;72540;62.834;27.606;2024-02-21T08:27:08;7.00;;;2.50;;
82797;SDS011;72540;62.834;27.606;2024-02-21T08:29:33;8.00;;;2.30;;
82797;SDS011;72540;62.834;27.606;2024-02-21T08:31:59;7.22;;;1.90;;
82797;SDS011;72540;62.834;27.606;2024-02-21T08:34:25;8.02;;;2.00;;
82797;SDS011;72540;62.834;27.606;2024-02-21T08:36:50;6.82;;;2.22;;
82797;SDS011;72540;62.834;27.606;2024-02-21T08:39:16;7.45;;;2.50;;
82797;SDS011;72540;62.834;27.606;2024-02-21T08:41:42;5.30;;;2.15;;
82797;SDS011;72540;62.834;27.606;2024-02-21T08:44:08;7.18;;;2.17;;
82797;SDS011;72540;62.834;27.606;2024-02-21T08:46:33;6.72;;;1.98;;
82797;SDS011;72540;62.834;27.606;2024-02-21T08:48:59;5.43;;;1.95;;
82797;SDS011;72540;62.834;27.606;2024-02-21T08:51:25;7.57;;;1.83;;
82797;SDS011;72540;62.834;27.606;2024-02-21T08:53:51;5.50;;;1.58;;
82797;SDS011;72540;62.834;27.606;2024-02-21T08:56:18;5.13;;;1.70;;
82797;SDS011;72540;62.834;27.606;2024-02-21T08:58:44;7.05;;;1.92;;
82797;SDS011;72540;62.834;27.606;2024-02-21T09:01:10;6.18;;;2.05;;
82797;SDS011;72540;62.834;27.606;2024-02-21T09:03:36;5.45;;;1.65;;
82797;SDS011;72540;62.834;27.606;2024-02-21T09:06:02;7.80;;;2.80;;
82797;SDS011;72540;62.834;27.606;2024-02-21T09:08:29;7.65;;;2.25;;
82797;SDS011;72540;62.834;27.606;2024-02-21T09:10:55;5.70;;;1.80;;
82797;SDS011;72540;62.834;27.606;2024-02-21T09:13:21;5.25;;;1.83;;
82797;SDS011;72540;62.834;27.606;2024-02-21T09:15:49;7.25;;;2.25;;
82797;SDS011;72540;62.834;27.606;2024-02-21T09:18:15;5.70;;;1.83;;
82797;SDS011;72540;62.834;27.606;2024-02-21T09:20:44;5.50;;;2.10;;
82797;SDS011;72540;62.834;27.606;2024-02-21T09:23:10;9.27;;;2.95;;
82797;SDS011;72540;62.834;27.606;2024-02-21T09:25:37;8.20;;;2.80;;
82797;SDS011;72540;62.834;27.606;2024-02-21T09:28:02;5.75;;;1.92;;
82797;SDS011;72540;62.834;27.606;2024-02-21T09:30:28;9.43;;;2.55;;
82797;SDS011;72540;62.834;27.606;2024-02-21T09:32:55;7.97;;;2.33;;
82797;SDS011;72540;62.834;27.606;2024-02-21T09:35:23;6.20;;;2.13;;
82797;SDS011;72540;62.834;27.606;2024-02-21T09:37:52;6.97;;;2.20;;
82797;SDS011;72540;62.834;27.606;2024-02-21T09:40:18;7.47;;;2.60;;
82797;SDS011;72540;62.834;27.606;2024-02-21T09:42:43;6.47;;;2.03;;
82797;SDS011;72540;62.834;27.606;2024-02-21T09:45:42;7.93;;;2.92;;
82797;SDS011;72540;62.834;27.606;2024-02-21T09:50:56;6.65;;;2.28;;
82797;SDS011;72540;62.834;27.606;2024-02-21T09:53:23;8.13;;;3.20;;
82797;SDS011;72540;62.834;27.606;2024-02-21T09:55:50;10.27;;;3.30;;
82797;SDS011;72540;62.834;27.606;2024-02-21T09:58:16;10.52;;;4.03;;
82797;SDS011;72540;62.834;27.606;2024-02-21T10:00:41;6.05;;;2.22;;
82797;SDS011;72540;62.834;27.606;2024-02-21T10:03:07;5.78;;;2.35;;
82797;SDS011;72540;62.834;27.606;2024-02-21T10:05:34;6.45;;;2.60;;
82797;SDS011;72540;62.834;27.606;2024-02-21T10:08:00;8.43;;;3.72;;
82797;SDS011;72540;62.834;27.606;2024-02-21T10:10:26;7.75;;;3.55;;
82797;SDS011;72540;62.834;27.606;2024-02-21T10:12:52;8.75;;;3.15;;
82797;SDS011;72540;62.834;27.606;2024-02-21T10:15:23;7.03;;;2.40;;
82797;SDS011;72540;62.834;27.606;2024-02-21T10:17:49;9.65;;;2.95;;
82797;SDS011;72540;62.834;27.606;2024-02-21T10:20:25;8.13;;;2.67;;
82797;SDS011;72540;62.834;27.606;2024-02-21T10:23:00;7.95;;;2.60;;
82797;SDS011;72540;62.834;27.606;2024-02-21T10:25:33;7.95;;;2.88;;
82797;SDS011;72540;62.834;27.606;2024-02-21T10:28:06;8.55;;;2.35;;
82797;SDS011;72540;62.834;27.606;2024-02-21T10:30:32;7.85;;;2.70;;
82797;SDS011;72540;62.834;27.606;2024-02-21T10:32:58;7.85;;;2.85;;
82797;SDS011;72540;62.834;27.606;2024-02-21T10:35:30;7.13;;;2.85;;
82797;SDS011;72540;62.834;27.606;2024-02-21T10:37:58;8.85;;;2.92;;
82797;SDS011;72540;62.834;27.606;2024-02-21T10:40:24;8.65;;;2.92;;
82797;SDS011;72540;62.834;27.606;2024-02-21T10:42:53;7.72;;;2.60;;
82797;SDS011;72540;62.834;27.606;2024-02-21T10:45:45;7.22;;;3.20;;
82797;SDS011;72540;62.834;27.606;2024-02-21T10:48:14;8.73;;;2.42;;
82797;SDS011;72540;62.834;27.606;2024-02-21T10:56:33;7.07;;;2.50;;
82797;SDS011;72540;62.834;27.606;2024-02-21T10:59:04;7.10;;;2.35;;
82797;SDS011;72540;62.834;27.606;2024-02-21T11:01:30;8.45;;;3.03;;
82797;SDS011;72540;62.834;27.606;2024-02-21T11:04:07;7.32;;;2.85;;
82797;SDS011;72540;62.834;27.606;2024-02-21T11:06:34;7.78;;;2.75;;
82797;SDS011;72540;62.834;27.606;2024-02-21T11:09:01;6.40;;;2.58;;
82797;SDS011;72540;62.834;27.606;2024-02-21T11:11:40;7.32;;;2.80;;
82797;SDS011;72540;62.834;27.606;2024-02-21T11:14:07;7.72;;;2.55;;
82797;SDS011;72540;62.834;27.606;2024-02-21T11:16:37;6.15;;;2.65;;
82797;SDS011;72540;62.834;27.606;2024-02-21T11:19:05;6.78;;;3.03;;
82797;SDS011;72540;62.834;27.606;2024-02-21T11:21:36;6.55;;;2.33;;
82797;SDS011;72540;62.834;27.606;2024-02-21T11:24:03;7.03;;;2.55;;
82797;SDS011;72540;62.834;27.606;2024-02-21T11:26:29;6.53;;;2.35;;
82797;SDS011;72540;62.834;27.606;2024-02-21T11:28:57;8.40;;;2.85;;
82797;SDS011;72540;62.834;27.606;2024-02-21T11:31:37;10.75;;;2.88;;
82797;SDS011;72540;62.834;27.606;2024-02-21T11:34:04;7.75;;;2.35;;
82797;SDS011;72540;62.834;27.606;2024-02-21T11:36:30;7.65;;;2.03;;
82797;SDS011;72540;62.834;27.606;2024-02-21T11:39:02;7.20;;;2.80;;
82797;SDS011;72540;62.834;27.606;2024-02-21T11:41:29;8.43;;;2.80;;
82797;SDS011;72540;62.834;27.606;2024-02-21T11:43:55;7.45;;;2.88;;
82797;SDS011;72540;62.834;27.606;2024-02-21T11:46:21;8.10;;;2.95;;
82797;SDS011;72540;62.834;27.606;2024-02-21T11:48:46;7.10;;;2.28;;
82797;SDS011;72540;62.834;27.606;2024-02-21T11:51:22;6.88;;;2.60;;
82797;SDS011;72540;62.834;27.606;2024-02-21T11:53:51;8.20;;;2.92;;
82797;SDS011;72540;62.834;27.606;2024-02-21T11:56:18;8.20;;;2.60;;
82797;SDS011;72540;62.834;27.606;2024-02-21T11:58:45;6.95;;;2.47;;
82797;SDS011;72540;62.834;27.606;2024-02-21T12:01:14;6.70;;;2.40;;
82797;SDS011;72540;62.834;27.606;2024-02-21T12:03:40;6.75;;;2.38;;
82797;SDS011;72540;62.834;27.606;2024-02-21T12:06:15;9.23;;;3.17;;
82797;SDS011;72540;62.834;27.606;2024-02-21T12:08:45;10.13;;;2.70;;
82797;SDS011;72540;62.834;27.606;2024-02-21T12:11:18;5.35;;;1.85;;
82797;SDS011;72540;62.834;27.606;2024-02-21T12:14:00;8.38;;;2.50;;
82797;SDS011;72540;62.834;27.606;2024-02-21T12:16:27;8.00;;;2.97;;
82797;SDS011;72540;62.834;27.606;2024-02-21T12:18:56;7.68;;;2.85;;
82797;SDS011;72540;62.834;27.606;2024-02-21T12:21:23;8.45;;;3.00;;
82797;SDS011;72540;62.834;27.606;2024-02-21T12:23:49;12.38;;;2.67;;
82797;SDS011;72540;62.834;27.606;2024-02-21T12:26:15;8.07;;;2.35;;
82797;SDS011;72540;62.834;27.606;2024-02-21T12:28:41;9.18;;;3.40;;
82797;SDS011;72540;62.834;27.606;2024-02-21T12:31:06;8.48;;;2.90;;
82797;SDS011;72540;62.834;27.606;2024-02-21T12:33:33;8.05;;;2.70;;
82797;SDS011;72540;62.834;27.606;2024-02-21T12:36:00;10.60;;;3.00;;
82797;SDS011;72540;62.834;27.606;2024-02-21T12:38:25;7.95;;;2.58;;
82797;SDS011;72540;62.834;27.606;2024-02-21T12:40:51;8.05;;;2.95;;
82797;SDS011;72540;62.834;27.606;2024-02-21T12:43:17;6.50;;;2.80;;
82797;SDS011;72540;62.834;27.606;2024-02-21T12:45:43;7.07;;;2.67;;
82797;SDS011;72540;62.834;27.606;2024-02-21T12:48:09;8.95;;;2.70;;
82797;SDS011;72540;62.834;27.606;2024-02-21T12:50:34;9.90;;;3.03;;
82797;SDS011;72540;62.834;27.606;2024-02-21T12:53:00;9.38;;;3.05;;
82797;SDS011;72540;62.834;27.606;2024-02-21T12:55:26;8.00;;;2.40;;
82797;SDS011;72540;62.834;27.606;2024-02-21T12:57:51;10.40;;;3.20;;
82797;SDS011;72540;62.834;27.606;2024-02-21T13:00:17;10.07;;;3.03;;
82797;SDS011;72540;62.834;27.606;2024-02-21T13:02:43;8.68;;;2.83;;
82797;SDS011;72540;62.834;27.606;2024-02-21T13:05:11;7.25;;;2.55;;
82797;SDS011;72540;62.834;27.606;2024-02-21T13:07:37;7.75;;;2.80;;
82797;SDS011;72540;62.834;27.606;2024-02-21T13:10:02;7.15;;;2.50;;
82797;SDS011;72540;62.834;27.606;2024-02-21T13:12:30;7.95;;;2.83;;
82797;SDS011;72540;62.834;27.606;2024-02-21T13:14:56;7.82;;;2.92;;
82797;SDS011;72540;62.834;27.606;2024-02-21T13:17:21;9.52;;;2.72;;
82797;SDS011;72540;62.834;27.606;2024-02-21T13:19:47;8.65;;;3.60;;
82797;SDS011;72540;62.834;27.606;2024-02-21T13:22:13;8.77;;;3.38;;
82797;SDS011;72540;62.834;27.606;2024-02-21T13:24:39;10.25;;;2.78;;
82797;SDS011;72540;62.834;27.606;2024-02-21T13:27:04;8.73;;;2.65;;
82797;SDS011;72540;62.834;27.606;2024-02-21T13:29:30;10.07;;;3.00;;
82797;SDS011;72540;62.834;27.606;2024-02-21T13:31:55;8.02;;;3.15;;
82797;SDS011;72540;62.834;27.606;2024-02-21T13:34:21;8.85;;;3.00;;
82797;SDS011;72540;62.834;27.606;2024-02-21T13:36:47;10.43;;;2.95;;
82797;SDS011;72540;62.834;27.606;2024-02-21T13:39:13;10.45;;;3.78;;
82797;SDS011;72540;62.834;27.606;2024-02-21T13:41:41;9.88;;;3.22;;
82797;SDS011;72540;62.834;27.606;2024-02-21T13:44:07;7.97;;;2.53;;
82797;SDS011;72540;62.834;27.606;2024-02-21T13:46:34;8.15;;;2.28;;
82797;SDS011;72540;62.834;27.606;2024-02-21T13:49:04;7.63;;;2.85;;
82797;SDS011;72540;62.834;27.606;2024-02-21T13:51:32;9.07;;;2.80;;
82797;SDS011;72540;62.834;27.606;2024-02-21T13:54:06;9.20;;;2.53;;
82797;SDS011;72540;62.834;27.606;2024-02-21T13:56:34;7.18;;;2.60;;
82797;SDS011;72540;62.834;27.606;2024-02-21T13:59:00;9.05;;;2.53;;
82797;SDS011;72540;62.834;27.606;2024-02-21T14:01:26;9.30;;;2.83;;
82797;SDS011;72540;62.834;27.606;2024-02-21T14:03:53;8.13;;;2.72;;
82797;SDS011;72540;62.834;27.606;2024-02-21T14:06:19;8.75;;;3.08;;
82797;SDS011;72540;62.834;27.606;2024-02-21T14:08:44;7.18;;;2.85;;
82797;SDS011;72540;62.834;27.606;2024-02-21T14:11:10;6.72;;;2.72;;
82797;SDS011;72540;62.834;27.606;2024-02-21T14:13:35;9.13;;;3.65;;
82797;SDS011;72540;62.834;27.606;2024-02-21T14:16:01;9.63;;;3.10;;
82797;SDS011;72540;62.834;27.606;2024-02-21T14:18:27;8.40;;;2.75;;
82797;SDS011;72540;62.834;27.606;2024-02-21T14:20:53;8.25;;;3.17;;
82797;SDS011;72540;62.834;27.606;2024-02-21T14:23:18;7.75;;;2.58;;
82797;SDS011;72540;62.834;27.606;2024-02-21T14:25:44;8.73;;;2.97;;
82797;SDS011;72540;62.834;27.606;2024-02-21T14:28:09;9.63;;;3.03;;
82797;SDS011;72540;62.834;27.606;2024-02-21T14:30:35;9.23;;;3.40;;
82797;SDS011;72540;62.834;27.606;2024-02-21T14:33:01;8.38;;;3.33;;
82797;SDS011;72540;62.834;27.606;2024-02-21T14:35:26;8.30;;;2.65;;
82797;SDS011;72540;62.834;27.606;2024-02-21T14:37:52;7.18;;;2.67;;
82797;SDS011;72540;62.834;27.606;2024-02-21T14:40:22;6.82;;;2.72;;